createdAt,value
2023-05-20T00:01:18.404Z,1.10
2023-05-20T00:03:20.883Z,1.40
2023-05-20T00:05:22.688Z,1.70
2023-05-20T00:07:24.572Z,1.40
2023-05-20T00:09:26.467Z,1.40
2023-05-20T00:11:28.766Z,1.80
2023-05-20T00:13:30.668Z,1.52
2023-05-20T00:15:32.848Z,1.25
2023-05-20T00:17:34.750Z,1.40
2023-05-20T00:19:36.542Z,1.70
2023-05-20T00:21:38.291Z,1.70
2023-05-20T00:23:40.045Z,1.35
2023-05-20T00:25:41.800Z,1.63
2023-05-20T00:27:43.729Z,1.55
2023-05-20T00:29:45.542Z,1.45
2023-05-20T00:31:47.404Z,1.70
2023-05-20T00:33:49.364Z,1.67
2023-05-20T00:35:51.285Z,1.45
2023-05-20T00:37:53.045Z,1.58
2023-05-20T00:39:55.058Z,1.27
2023-05-20T00:42:00.553Z,1.33
2023-05-20T00:44:02.256Z,1.63
2023-05-20T00:46:04.294Z,2.00
2023-05-20T00:48:07.018Z,1.27
2023-05-20T00:50:10.643Z,1.92
2023-05-20T00:52:13.088Z,1.33
2023-05-20T00:54:14.816Z,1.42
2023-05-20T00:56:16.642Z,1.42
2023-05-20T00:58:18.550Z,1.40
2023-05-20T01:00:20.339Z,1.45
2023-05-20T01:02:22.893Z,1.10
2023-05-20T01:04:24.744Z,1.15
2023-05-20T01:06:28.416Z,1.23
2023-05-20T01:08:30.441Z,1.10
2023-05-20T01:10:33.456Z,1.45
2023-05-20T01:12:39.791Z,1.63
2023-05-20T01:14:48.959Z,1.67
2023-05-20T01:16:51.608Z,1.13
2023-05-20T01:18:56.120Z,1.17
2023-05-20T01:21:01.721Z,1.40
2023-05-20T01:23:04.336Z,1.40
2023-05-20T01:25:06.426Z,1.40
2023-05-20T01:27:13.665Z,1.88
2023-05-20T01:29:18.749Z,1.58
2023-05-20T01:31:33.669Z,1.52
2023-05-20T01:33:36.889Z,1.38
2023-05-20T01:35:39.853Z,1.58
2023-05-20T01:37:42.037Z,1.50
2023-05-20T01:39:44.496Z,1.55
2023-05-20T01:41:46.693Z,1.63
2023-05-20T01:43:48.476Z,1.13
2023-05-20T01:45:50.336Z,1.30
2023-05-20T01:47:52.244Z,1.45
2023-05-20T01:49:54.351Z,1.30
2023-05-20T01:51:56.560Z,1.17
2023-05-20T01:53:58.426Z,1.45
2023-05-20T01:56:00.250Z,1.50
2023-05-20T01:58:02.819Z,1.33
2023-05-20T02:00:06.315Z,1.55
2023-05-20T02:02:08.157Z,1.48
2023-05-20T02:04:09.994Z,1.50
2023-05-20T02:06:11.830Z,1.35
2023-05-20T02:08:13.630Z,1.38
2023-05-20T02:10:15.424Z,1.50
2023-05-20T02:12:17.275Z,1.55
2023-05-20T02:14:19.061Z,1.15
2023-05-20T02:16:21.310Z,1.20
2023-05-20T02:18:23.542Z,1.58
2023-05-20T02:20:25.391Z,1.55
2023-05-20T02:22:27.132Z,1.35
2023-05-20T02:24:29.251Z,1.65
2023-05-20T02:26:31.155Z,2.13
2023-05-20T02:28:33.636Z,1.60
2023-05-20T02:30:35.832Z,1.40
2023-05-20T02:32:38.310Z,1.67
2023-05-20T02:34:40.191Z,2.15
2023-05-20T02:36:42.522Z,1.40
2023-05-20T02:38:45.004Z,1.92
2023-05-20T02:40:46.814Z,1.90
2023-05-20T02:42:48.567Z,1.65
2023-05-20T02:44:50.438Z,1.90
2023-05-20T02:46:52.315Z,1.80
2023-05-20T02:48:54.069Z,1.58
2023-05-20T02:50:56.035Z,1.83
2023-05-20T02:52:57.795Z,1.60
2023-05-20T02:54:59.718Z,2.20
2023-05-20T02:57:02.312Z,1.48
2023-05-20T02:59:05.019Z,1.60
2023-05-20T03:01:07.222Z,1.58
2023-05-20T03:03:10.416Z,1.65
2023-05-20T03:05:12.520Z,1.60
2023-05-20T03:07:14.801Z,1.33
2023-05-20T03:09:16.523Z,1.50
2023-05-20T03:11:18.260Z,1.55
2023-05-20T03:13:20.080Z,1.65
2023-05-20T03:15:21.797Z,2.15
2023-05-20T03:17:23.611Z,1.50
2023-05-20T03:19:25.708Z,1.90
2023-05-20T03:21:28.312Z,1.77
2023-05-20T03:23:29.989Z,1.95
2023-05-20T03:25:32.424Z,1.65
2023-05-20T03:27:34.698Z,1.27
2023-05-20T03:29:36.559Z,1.67
2023-05-20T03:31:38.451Z,1.60
2023-05-20T03:33:40.254Z,2.20
2023-05-20T03:35:51.344Z,1.52
2023-05-20T03:37:53.545Z,2.10
2023-05-20T03:39:55.302Z,1.83
2023-05-20T03:41:56.990Z,2.05
2023-05-20T03:43:58.757Z,2.00
2023-05-20T03:46:00.551Z,1.63
2023-05-20T03:48:03.708Z,1.92
2023-05-20T03:50:06.668Z,2.33
2023-05-20T03:52:08.435Z,2.20
2023-05-20T03:54:10.174Z,2.25
2023-05-20T03:56:12.065Z,1.88
2023-05-20T03:58:15.517Z,1.65
2023-05-20T04:00:18.740Z,2.72
2023-05-20T04:02:21.261Z,2.42
2023-05-20T04:04:23.365Z,2.13
2023-05-20T04:06:25.240Z,2.55
2023-05-20T04:08:27.051Z,2.03
2023-05-20T04:10:28.745Z,1.90
2023-05-20T04:12:32.287Z,2.22
2023-05-20T04:14:35.171Z,2.50
2023-05-20T04:16:37.653Z,2.33
2023-05-20T04:18:39.581Z,2.00
2023-05-20T04:20:41.571Z,2.20
2023-05-20T04:22:43.273Z,1.85
2023-05-20T04:24:46.231Z,1.67
2023-05-20T04:26:48.353Z,1.90
2023-05-20T04:28:50.148Z,2.60
2023-05-20T04:31:04.617Z,1.83
2023-05-20T04:33:06.489Z,1.73
2023-05-20T04:35:14.752Z,2.05
2023-05-20T04:37:16.626Z,2.53
2023-05-20T04:39:20.575Z,2.17
2023-05-20T04:41:22.681Z,3.10
2023-05-20T04:43:25.938Z,3.53
2023-05-20T04:45:27.759Z,3.08
2023-05-20T04:47:29.540Z,1.98
2023-05-20T04:49:31.351Z,2.58
2023-05-20T04:51:34.316Z,2.72
2023-05-20T04:53:36.821Z,2.10
2023-05-20T04:55:39.167Z,2.35
2023-05-20T04:57:42.420Z,2.40
2023-05-20T04:59:45.742Z,2.25
2023-05-20T05:01:47.455Z,1.80
2023-05-20T05:03:49.234Z,2.90
2023-05-20T05:05:51.037Z,1.92
2023-05-20T05:07:52.827Z,2.17
2023-05-20T05:09:54.610Z,2.33
2023-05-20T05:11:56.380Z,2.67
2023-05-20T05:13:58.172Z,2.25
2023-05-20T05:16:00.834Z,2.05
2023-05-20T05:18:02.707Z,3.67
2023-05-20T05:20:04.925Z,1.70
2023-05-20T05:22:06.635Z,2.20
2023-05-20T05:24:08.380Z,3.10
2023-05-20T05:26:10.112Z,2.50
2023-05-20T05:28:11.821Z,2.60
2023-05-20T05:30:13.605Z,2.33
2023-05-20T05:32:15.835Z,2.45
2023-05-20T05:34:17.556Z,2.30
2023-05-20T05:36:19.388Z,2.55
2023-05-20T05:38:21.163Z,2.70
2023-05-20T05:40:23.735Z,2.08
2023-05-20T05:42:25.711Z,2.92
2023-05-20T05:44:27.477Z,2.25
2023-05-20T05:46:29.264Z,2.97
2023-05-20T05:48:31.103Z,2.33
2023-05-20T05:50:32.916Z,2.00
2023-05-20T05:52:34.619Z,2.95
2023-05-20T05:54:36.495Z,2.47
2023-05-20T05:56:38.237Z,2.10
2023-05-20T05:58:40.120Z,2.45
2023-05-20T06:00:44.924Z,2.38
2023-05-20T06:02:47.743Z,2.47
2023-05-20T06:04:49.639Z,1.85
2023-05-20T06:06:51.353Z,2.35
2023-05-20T06:08:53.051Z,2.42
2023-05-20T06:10:54.772Z,2.50
2023-05-20T06:12:56.514Z,2.22
2023-05-20T06:14:58.223Z,3.35
2023-05-20T06:17:00.189Z,2.13
2023-05-20T06:19:03.563Z,2.80
2023-05-20T06:21:06.423Z,2.08
2023-05-20T06:23:08.228Z,2.50
2023-05-20T06:25:10.532Z,1.95
2023-05-20T06:27:12.294Z,1.98
2023-05-20T06:29:14.517Z,2.38
2023-05-20T06:31:16.388Z,2.50
2023-05-20T06:33:19.723Z,2.05
2023-05-20T06:35:21.730Z,2.13
2023-05-20T06:37:24.635Z,2.45
2023-05-20T06:39:26.393Z,2.42
2023-05-20T06:41:28.288Z,1.88
2023-05-20T06:43:30.157Z,2.75
2023-05-20T06:45:32.176Z,2.40
2023-05-20T06:47:34.193Z,2.28
2023-05-20T06:49:36.037Z,1.45
2023-05-20T06:51:37.968Z,1.65
2023-05-20T06:53:39.773Z,2.15
2023-05-20T06:55:41.573Z,2.40
2023-05-20T06:57:43.424Z,2.45
2023-05-20T06:59:45.206Z,2.63
2023-05-20T07:01:46.940Z,3.15
2023-05-20T07:03:48.750Z,2.88
2023-05-20T07:05:51.408Z,2.67
2023-05-20T07:07:53.166Z,2.78
2023-05-20T07:09:55.372Z,3.75
2023-05-20T07:11:57.103Z,3.40
2023-05-20T07:13:59.112Z,4.20
2023-05-20T07:16:01.107Z,3.97
2023-05-20T07:18:02.984Z,3.63
2023-05-20T07:20:05.166Z,3.70
2023-05-20T07:22:06.983Z,3.22
2023-05-20T07:24:09.048Z,3.72
2023-05-20T07:26:10.730Z,3.25
2023-05-20T07:28:12.537Z,3.40
2023-05-20T07:30:14.331Z,3.50
2023-05-20T07:32:16.069Z,3.75
2023-05-20T07:34:17.786Z,3.83
2023-05-20T07:36:19.680Z,3.88
2023-05-20T07:38:21.665Z,3.20
2023-05-20T07:40:23.385Z,3.75
2023-05-20T07:42:25.070Z,3.20
2023-05-20T07:44:26.929Z,4.05
2023-05-20T07:46:29.323Z,3.33
2023-05-20T07:48:31.188Z,3.60
2023-05-20T07:50:34.514Z,4.90
2023-05-20T07:52:54.576Z,3.97
2023-05-20T07:54:57.566Z,3.78
2023-05-20T07:57:00.461Z,4.28
2023-05-20T07:59:03.549Z,4.45
2023-05-20T08:01:05.371Z,3.92
2023-05-20T08:03:08.473Z,4.65
2023-05-20T08:05:10.524Z,4.22
2023-05-20T08:07:12.381Z,4.50
2023-05-20T08:09:14.160Z,4.45
2023-05-20T08:11:15.992Z,3.80
2023-05-20T08:13:17.909Z,4.50
2023-05-20T08:15:19.620Z,4.57
2023-05-20T08:17:21.706Z,4.35
2023-05-20T08:19:23.545Z,4.63
2023-05-20T08:21:25.400Z,5.05
2023-05-20T08:23:27.256Z,4.80
2023-05-20T08:25:30.158Z,3.83
2023-05-20T08:27:32.112Z,3.92
2023-05-20T08:29:33.859Z,3.78
2023-05-20T08:31:36.114Z,4.28
2023-05-20T08:33:38.000Z,3.80
2023-05-20T08:35:40.784Z,3.78
2023-05-20T08:37:43.811Z,4.93
2023-05-20T08:39:46.792Z,3.65
2023-05-20T08:41:49.017Z,4.22
2023-05-20T08:43:51.616Z,4.40
2023-05-20T08:45:53.535Z,4.30
2023-05-20T08:47:55.876Z,4.75
2023-05-20T08:50:12.427Z,4.05
2023-05-20T08:52:15.683Z,4.30
2023-05-20T08:54:18.133Z,5.60
2023-05-20T08:56:20.490Z,4.82
2023-05-20T08:58:23.593Z,3.85
2023-05-20T09:00:29.045Z,4.40
2023-05-20T09:02:31.004Z,4.03
2023-05-20T09:04:32.894Z,4.22
2023-05-20T09:06:43.904Z,5.25
2023-05-20T09:08:46.915Z,4.45
2023-05-20T09:10:52.747Z,4.53
2023-05-20T09:12:54.496Z,4.57
2023-05-20T09:14:56.502Z,5.05
2023-05-20T09:16:58.564Z,3.97
2023-05-20T09:19:00.488Z,4.82
2023-05-20T09:21:07.000Z,4.10
2023-05-20T09:23:10.280Z,5.05
2023-05-20T09:25:13.456Z,3.60
2023-05-20T09:27:15.669Z,4.53
2023-05-20T09:29:17.523Z,4.72
2023-05-20T09:31:19.450Z,5.13
2023-05-20T09:33:22.128Z,5.05
2023-05-20T09:35:24.702Z,4.30
2023-05-20T09:37:27.967Z,4.65
2023-05-20T09:39:31.526Z,4.20
2023-05-20T09:41:49.189Z,4.75
2023-05-20T09:43:52.453Z,3.97
2023-05-20T09:45:55.870Z,4.47
2023-05-20T09:47:58.321Z,4.13
2023-05-20T09:50:00.665Z,3.55
2023-05-20T09:52:04.253Z,3.88
2023-05-20T09:54:08.537Z,3.67
2023-05-20T09:56:10.470Z,4.07
2023-05-20T09:58:14.787Z,3.55
2023-05-20T10:00:18.344Z,3.45
2023-05-20T10:02:20.370Z,3.95
2023-05-20T10:04:24.012Z,3.08
2023-05-20T10:06:51.159Z,3.83
2023-05-20T10:09:12.579Z,3.42
2023-05-20T10:11:23.202Z,4.13
2023-05-20T10:14:06.960Z,3.95
2023-05-20T10:16:31.530Z,3.88
2023-05-20T10:18:45.322Z,3.60
2023-05-20T10:20:48.161Z,3.40
2023-05-20T10:22:59.921Z,3.90
2023-05-20T10:25:07.597Z,3.42
2023-05-20T10:27:11.318Z,3.25
2023-05-20T10:29:17.106Z,4.50
2023-05-20T10:31:22.124Z,3.60
2023-05-20T10:33:25.908Z,4.07
2023-05-20T10:35:27.851Z,3.45
2023-05-20T10:37:31.978Z,4.40
2023-05-20T10:39:34.770Z,4.53
2023-05-20T10:41:37.463Z,3.92
2023-05-20T10:43:39.276Z,3.20
2023-05-20T10:45:54.517Z,3.88
2023-05-20T10:47:58.681Z,4.18
2023-05-20T10:50:02.244Z,4.28
2023-05-20T10:52:04.243Z,5.00
2023-05-20T10:54:06.225Z,4.03
2023-05-20T10:56:17.610Z,3.42
2023-05-20T10:58:22.074Z,3.47
2023-05-20T11:00:23.795Z,3.47
2023-05-20T11:02:29.284Z,4.45
2023-05-20T11:04:32.395Z,4.03
2023-05-20T11:06:34.486Z,3.72
2023-05-20T11:08:36.160Z,4.68
2023-05-20T11:10:38.019Z,3.97
2023-05-20T11:12:40.143Z,3.55
2023-05-20T11:14:41.971Z,3.35
2023-05-20T11:16:43.996Z,4.03
2023-05-20T11:18:49.136Z,3.75
2023-05-20T11:20:51.226Z,3.50
2023-05-20T11:22:54.302Z,4.32
2023-05-20T11:24:56.053Z,4.38
2023-05-20T11:26:58.191Z,3.80
2023-05-20T11:29:01.433Z,3.40
2023-05-20T11:31:03.682Z,3.92
2023-05-20T11:33:06.107Z,3.97
2023-05-20T11:35:08.724Z,4.63
2023-05-20T11:37:11.503Z,4.07
2023-05-20T11:39:15.039Z,4.00
2023-05-20T11:41:16.797Z,4.03
2023-05-20T11:43:19.273Z,3.67
2023-05-20T11:45:21.082Z,4.32
2023-05-20T11:47:27.830Z,5.43
2023-05-20T11:49:30.942Z,4.45
2023-05-20T11:51:32.947Z,3.90
2023-05-20T11:53:34.696Z,3.88
2023-05-20T11:55:49.823Z,4.75
2023-05-20T11:57:52.221Z,4.80
2023-05-20T11:59:54.389Z,4.78
2023-05-20T12:01:56.246Z,4.35
2023-05-20T12:03:58.230Z,4.95
2023-05-20T12:06:02.503Z,4.57
2023-05-20T12:08:04.656Z,5.40
2023-05-20T12:10:07.077Z,5.13
2023-05-20T12:12:08.942Z,5.35
2023-05-20T12:14:10.959Z,6.50
2023-05-20T12:16:12.941Z,5.55
2023-05-20T12:18:14.802Z,5.45
2023-05-20T12:20:17.981Z,5.28
2023-05-20T12:22:19.708Z,5.80
2023-05-20T12:24:21.456Z,5.18
2023-05-20T12:26:27.408Z,4.93
2023-05-20T12:28:29.281Z,5.43
2023-05-20T12:30:31.167Z,5.32
2023-05-20T12:32:33.215Z,5.00
2023-05-20T12:34:36.154Z,5.32
2023-05-20T12:36:38.062Z,5.80
2023-05-20T12:38:40.213Z,6.30
2023-05-20T12:40:42.038Z,5.30
2023-05-20T12:42:44.804Z,5.78
2023-05-20T12:44:46.563Z,5.50
2023-05-20T12:46:48.375Z,4.90
2023-05-20T12:48:50.570Z,5.78
2023-05-20T12:50:52.322Z,5.18
2023-05-20T12:52:54.180Z,5.43
2023-05-20T12:54:56.730Z,5.82
2023-05-20T12:56:58.888Z,5.50
2023-05-20T12:59:00.649Z,5.68
2023-05-20T13:01:02.596Z,5.43
2023-05-20T13:03:04.624Z,5.65
2023-05-20T13:05:06.783Z,5.32
2023-05-20T13:07:08.898Z,4.72
2023-05-20T13:09:11.077Z,5.53
2023-05-20T13:11:13.213Z,4.72
2023-05-20T13:13:21.407Z,5.03
2023-05-20T13:15:23.192Z,5.93
2023-05-20T13:17:25.020Z,4.85
2023-05-20T13:19:26.886Z,5.47
2023-05-20T13:21:28.670Z,4.40
2023-05-20T13:23:30.534Z,5.03
2023-05-20T13:25:32.353Z,4.22
2023-05-20T13:27:34.133Z,4.68
2023-05-20T13:29:35.967Z,5.00
2023-05-20T13:31:37.923Z,5.63
2023-05-20T13:33:39.808Z,5.03
2023-05-20T13:35:41.573Z,5.30
2023-05-20T13:37:43.349Z,5.38
2023-05-20T13:39:45.063Z,5.72
2023-05-20T13:41:46.896Z,6.18
2023-05-20T13:43:48.712Z,5.40
2023-05-20T13:45:50.556Z,4.97
2023-05-20T13:47:52.513Z,5.45
2023-05-20T13:49:54.367Z,5.47
2023-05-20T13:51:56.151Z,5.68
2023-05-20T13:53:57.995Z,5.40
2023-05-20T13:56:00.012Z,6.20
2023-05-20T13:58:01.800Z,5.32
2023-05-20T14:00:04.529Z,5.32
2023-05-20T14:02:06.573Z,5.40
2023-05-20T14:04:08.317Z,5.10
2023-05-20T14:06:10.122Z,4.93
2023-05-20T14:08:12.796Z,5.70
2023-05-20T14:10:14.601Z,5.97
2023-05-20T14:12:16.322Z,5.20
2023-05-20T14:14:18.214Z,5.25
2023-05-20T14:16:20.125Z,5.57
2023-05-20T14:18:21.951Z,5.60
2023-05-20T14:20:24.934Z,6.32
2023-05-20T14:22:26.635Z,5.78
2023-05-20T14:24:28.494Z,5.63
2023-05-20T14:26:30.299Z,5.50
2023-05-20T14:28:32.066Z,5.45
2023-05-20T14:30:34.278Z,5.47
2023-05-20T14:32:36.437Z,5.55
2023-05-20T14:34:38.208Z,6.25
2023-05-20T14:36:40.140Z,5.70
2023-05-20T14:38:41.864Z,5.30
2023-05-20T14:40:43.574Z,6.03
2023-05-20T14:42:45.430Z,5.32
2023-05-20T14:44:48.353Z,5.53
2023-05-20T14:46:51.496Z,5.70
2023-05-20T14:48:53.263Z,5.93
2023-05-20T14:50:55.199Z,5.90
2023-05-20T14:52:56.970Z,5.57
2023-05-20T14:54:58.733Z,5.38
2023-05-20T14:57:01.120Z,6.22
2023-05-20T14:59:02.868Z,4.68
2023-05-20T15:01:04.686Z,6.10
2023-05-20T15:03:06.677Z,6.07
2023-05-20T15:05:09.138Z,5.10
2023-05-20T15:07:11.792Z,5.65
2023-05-20T15:09:13.555Z,5.28
2023-05-20T15:11:15.323Z,6.32
2023-05-20T15:13:17.154Z,6.10
2023-05-20T15:15:19.041Z,5.72
2023-05-20T15:17:20.825Z,5.45
2023-05-20T15:19:23.027Z,4.75
2023-05-20T15:21:25.247Z,6.80
2023-05-20T15:23:27.074Z,5.80
2023-05-20T15:25:28.837Z,6.10
2023-05-20T15:27:30.712Z,5.20
2023-05-20T15:29:32.486Z,5.10
2023-05-20T15:31:34.287Z,5.00
2023-05-20T15:33:36.224Z,5.57
2023-05-20T15:35:38.061Z,5.20
2023-05-20T15:37:39.836Z,5.40
2023-05-20T15:39:41.834Z,5.82
2023-05-20T15:41:43.742Z,6.03
2023-05-20T15:43:45.556Z,5.80
2023-05-20T15:45:48.386Z,5.90
2023-05-20T15:47:50.232Z,6.38
2023-05-20T15:49:52.160Z,5.65
2023-05-20T15:52:03.040Z,6.35
2023-05-20T15:54:05.196Z,5.88
2023-05-20T15:56:07.543Z,5.93
2023-05-20T15:58:09.388Z,6.15
2023-05-20T16:00:12.093Z,6.65
2023-05-20T16:02:13.968Z,6.13
2023-05-20T16:04:16.101Z,5.45
2023-05-20T16:06:18.016Z,5.75
2023-05-20T16:08:21.097Z,5.43
2023-05-20T16:10:31.297Z,5.63
2023-05-20T16:12:33.093Z,6.30
2023-05-20T16:14:34.908Z,6.10
2023-05-20T16:16:36.660Z,6.15
2023-05-20T16:18:38.342Z,5.90
2023-05-20T16:20:40.076Z,6.63
2023-05-20T16:22:41.866Z,6.25
2023-05-20T16:24:43.603Z,7.10
2023-05-20T16:26:45.629Z,6.18
2023-05-20T16:28:47.464Z,6.43
2023-05-20T16:30:49.249Z,6.75
2023-05-20T16:32:51.110Z,6.35
2023-05-20T16:34:54.759Z,6.75
2023-05-20T16:36:56.749Z,7.32
2023-05-20T16:38:58.531Z,6.32
2023-05-20T16:41:01.425Z,6.22
2023-05-20T16:43:03.249Z,6.35
2023-05-20T16:45:05.620Z,6.50
2023-05-20T16:47:07.885Z,6.22
2023-05-20T16:49:12.640Z,6.25
2023-05-20T16:51:14.355Z,7.03
2023-05-20T16:53:16.650Z,7.43
2023-05-20T16:55:18.581Z,6.28
2023-05-20T16:57:20.391Z,6.35
2023-05-20T16:59:24.831Z,6.70
2023-05-20T17:01:26.690Z,6.45
2023-05-20T17:03:28.412Z,6.65
2023-05-20T17:05:30.111Z,6.38
2023-05-20T17:07:33.699Z,7.57
2023-05-20T17:09:36.965Z,7.13
2023-05-20T17:11:38.696Z,7.18
2023-05-20T17:13:41.753Z,5.78
2023-05-20T17:15:43.588Z,7.15
2023-05-20T17:17:45.501Z,7.40
2023-05-20T17:19:47.350Z,7.35
2023-05-20T17:21:49.189Z,6.20
2023-05-20T17:23:51.211Z,6.85
2023-05-20T17:25:53.006Z,6.55
2023-05-20T17:27:54.793Z,7.10
2023-05-20T17:29:58.651Z,6.50
2023-05-20T17:32:00.722Z,7.00
2023-05-20T17:34:02.483Z,7.20
2023-05-20T17:36:04.432Z,6.30
2023-05-20T17:38:06.151Z,6.35
2023-05-20T17:40:08.415Z,7.43
2023-05-20T17:42:10.577Z,6.50
2023-05-20T17:44:12.335Z,6.57
2023-05-20T17:46:14.250Z,7.38
2023-05-20T17:48:16.178Z,6.82
2023-05-20T17:50:18.009Z,7.38
2023-05-20T17:52:19.748Z,6.88
2023-05-20T17:54:21.585Z,7.03
2023-05-20T17:56:23.460Z,8.57
2023-05-20T17:58:26.822Z,6.63
2023-05-20T18:00:28.767Z,6.65
2023-05-20T18:02:30.818Z,7.90
2023-05-20T18:04:32.750Z,7.15
2023-05-20T18:06:34.819Z,7.25
2023-05-20T18:08:36.572Z,7.18
2023-05-20T18:10:38.723Z,7.25
2023-05-20T18:12:40.909Z,7.20
2023-05-20T18:14:42.676Z,7.63
2023-05-20T18:16:44.579Z,8.02
2023-05-20T18:18:46.433Z,7.32
2023-05-20T18:20:48.193Z,6.78
2023-05-20T18:22:52.390Z,7.75
2023-05-20T18:24:54.130Z,7.65
2023-05-20T18:26:56.016Z,6.78
2023-05-20T18:28:57.732Z,6.70
2023-05-20T18:30:59.585Z,7.03
2023-05-20T18:33:01.450Z,7.95
2023-05-20T18:35:03.416Z,7.63
2023-05-20T18:37:05.442Z,7.10
2023-05-20T18:39:07.676Z,6.68
2023-05-20T18:41:09.599Z,6.47
2023-05-20T18:43:11.594Z,7.75
2023-05-20T18:45:13.625Z,7.20
2023-05-20T18:47:16.956Z,7.13
2023-05-20T18:49:18.894Z,7.45
2023-05-20T18:51:20.655Z,6.93
2023-05-20T18:53:22.688Z,7.32
2023-05-20T18:55:25.603Z,8.02
2023-05-20T18:57:27.366Z,7.50
2023-05-20T18:59:29.114Z,7.97
2023-05-20T19:01:31.322Z,8.10
2023-05-20T19:03:33.293Z,7.65
2023-05-20T19:05:35.302Z,7.88
2023-05-20T19:07:38.256Z,7.00
2023-05-20T19:09:39.956Z,8.57
2023-05-20T19:11:41.688Z,7.97
2023-05-20T19:13:43.553Z,8.15
2023-05-20T19:15:45.517Z,8.65
2023-05-20T19:17:47.316Z,7.32
2023-05-20T19:19:49.403Z,7.72
2023-05-20T19:21:51.168Z,8.18
2023-05-20T19:23:52.910Z,7.82
2023-05-20T19:25:54.744Z,9.10
2023-05-20T19:27:56.627Z,8.90
2023-05-20T19:29:58.350Z,9.20
2023-05-20T19:32:00.133Z,8.25
2023-05-20T19:34:02.217Z,7.47
2023-05-20T19:36:04.247Z,7.65
2023-05-20T19:38:06.954Z,8.50
2023-05-20T19:40:09.241Z,7.90
2023-05-20T19:42:11.020Z,8.27
2023-05-20T19:44:12.762Z,7.93
2023-05-20T19:46:14.686Z,7.07
2023-05-20T19:48:16.772Z,8.43
2023-05-20T19:50:18.601Z,8.48
2023-05-20T19:52:20.373Z,8.40
2023-05-20T19:54:22.240Z,7.72
2023-05-20T19:56:24.353Z,8.48
2023-05-20T19:58:26.212Z,7.97
2023-05-20T20:00:28.442Z,8.40
2023-05-20T20:02:30.226Z,7.82
2023-05-20T20:04:32.124Z,7.70
2023-05-20T20:06:33.982Z,9.18
2023-05-20T20:08:38.151Z,7.70
2023-05-20T20:10:39.900Z,8.02
2023-05-20T20:12:41.767Z,7.85
2023-05-20T20:14:43.503Z,7.72
2023-05-20T20:16:49.334Z,8.40
2023-05-20T20:18:51.426Z,8.85
2023-05-20T20:20:54.254Z,8.18
2023-05-20T20:22:56.619Z,7.65
2023-05-20T20:25:01.930Z,8.05
2023-05-20T20:27:04.754Z,9.52
2023-05-20T20:29:07.821Z,8.27
2023-05-20T20:31:09.573Z,7.97
2023-05-20T20:33:11.545Z,9.13
2023-05-20T20:35:13.457Z,8.55
2023-05-20T20:37:15.960Z,8.45
2023-05-20T20:39:21.084Z,8.65
2023-05-20T20:41:23.115Z,8.43
2023-05-20T20:43:24.865Z,6.88
2023-05-20T20:45:26.638Z,7.68
2023-05-20T20:47:29.498Z,7.75
2023-05-20T20:49:32.285Z,7.75
2023-05-20T20:51:34.116Z,8.27
2023-05-20T20:53:36.754Z,7.95
2023-05-20T20:55:38.573Z,7.85
2023-05-20T20:57:42.133Z,7.97
2023-05-20T20:59:47.974Z,7.78
2023-05-20T21:01:52.840Z,7.50
2023-05-20T21:03:54.803Z,7.93
2023-05-20T21:05:56.875Z,7.70
2023-05-20T21:07:59.626Z,8.68
2023-05-20T21:10:01.399Z,7.85
2023-05-20T21:12:06.777Z,8.77
2023-05-20T21:14:12.444Z,9.57
2023-05-20T21:16:14.256Z,7.93
2023-05-20T21:18:21.799Z,7.57
2023-05-20T21:20:23.626Z,7.32
2023-05-20T21:22:25.386Z,7.78
2023-05-20T21:24:27.109Z,7.20
2023-05-20T21:26:29.042Z,7.30
2023-05-20T21:28:30.855Z,7.97
2023-05-20T21:30:32.881Z,7.25
2023-05-20T21:32:34.578Z,8.40
2023-05-20T21:34:36.367Z,7.70
2023-05-20T21:36:38.176Z,8.45
2023-05-20T21:38:40.036Z,7.40
2023-05-20T21:40:41.971Z,7.03
2023-05-20T21:42:43.725Z,7.90
2023-05-20T21:44:45.813Z,7.30
2023-05-20T21:46:47.676Z,8.23
2023-05-20T21:48:49.509Z,8.23
2023-05-20T21:50:51.256Z,7.47
2023-05-20T21:52:53.063Z,7.30
2023-05-20T21:54:54.789Z,7.43
2023-05-20T21:56:56.645Z,8.50
2023-05-20T21:58:58.472Z,7.25
2023-05-20T22:01:00.218Z,7.72
2023-05-20T22:03:02.212Z,8.05
2023-05-20T22:05:05.197Z,8.30
2023-05-20T22:07:07.218Z,8.15
2023-05-20T22:09:12.249Z,7.75
2023-05-20T22:11:15.436Z,8.23
2023-05-20T22:13:17.337Z,8.60
2023-05-20T22:15:19.208Z,8.65
2023-05-20T22:17:21.922Z,8.30
2023-05-20T22:19:23.804Z,9.23
2023-05-20T22:21:26.482Z,8.38
2023-05-20T22:23:29.035Z,9.20
2023-05-20T22:25:31.686Z,9.00
2023-05-20T22:27:34.993Z,8.98
2023-05-20T22:29:36.993Z,9.50
2023-05-20T22:31:38.827Z,9.85
2023-05-20T22:33:41.548Z,9.68
2023-05-20T22:35:43.463Z,8.73
2023-05-20T22:37:45.258Z,9.10
2023-05-20T22:39:56.085Z,9.30
2023-05-20T22:41:57.838Z,8.20
2023-05-20T22:43:59.602Z,8.68
2023-05-20T22:46:01.402Z,8.15
2023-05-20T22:48:04.624Z,10.23
2023-05-20T22:50:07.919Z,9.27
2023-05-20T22:52:09.656Z,9.45
2023-05-20T22:54:11.560Z,9.93
2023-05-20T22:56:13.328Z,9.10
2023-05-20T22:58:15.445Z,10.30
2023-05-20T23:00:18.316Z,9.70
2023-05-20T23:02:20.086Z,9.32
2023-05-20T23:04:21.866Z,9.98
2023-05-20T23:06:23.588Z,10.52
2023-05-20T23:08:25.374Z,10.95
2023-05-20T23:10:27.128Z,9.25
2023-05-20T23:12:28.881Z,11.00
2023-05-20T23:14:30.748Z,9.90
2023-05-20T23:16:32.527Z,10.27
2023-05-20T23:18:34.357Z,10.27
2023-05-20T23:20:36.099Z,10.40
2023-05-20T23:22:38.381Z,9.75
2023-05-20T23:24:40.122Z,10.07
2023-05-20T23:26:42.012Z,9.85
2023-05-20T23:28:43.717Z,9.93
2023-05-20T23:30:46.194Z,10.55
2023-05-20T23:32:47.934Z,11.52
2023-05-20T23:34:51.425Z,10.85
2023-05-20T23:36:53.415Z,10.35
2023-05-20T23:38:55.987Z,11.73
2023-05-20T23:40:57.794Z,10.82
2023-05-20T23:42:59.500Z,10.80
2023-05-20T23:45:01.413Z,11.15
2023-05-20T23:47:04.135Z,11.00
2023-05-20T23:49:06.847Z,10.80
2023-05-20T23:51:10.305Z,10.98
2023-05-20T23:53:12.119Z,11.50
2023-05-20T23:55:18.474Z,10.82
2023-05-20T23:57:20.892Z,10.52
2023-05-20T23:59:22.776Z,12.00
